createdAt,value
2023-11-23T00:01:08.942Z,8.07
2023-11-23T00:03:42.461Z,8.60
2023-11-23T00:06:10.858Z,7.40
2023-11-23T00:08:42.612Z,8.95
2023-11-23T00:11:11.195Z,7.10
2023-11-23T00:13:39.363Z,8.40
2023-11-23T00:16:08.606Z,9.38
2023-11-23T00:18:36.939Z,7.78
2023-11-23T00:21:05.083Z,6.25
2023-11-23T00:23:33.598Z,7.65
2023-11-23T00:26:04.779Z,8.07
2023-11-23T00:28:32.996Z,7.40
2023-11-23T00:31:00.796Z,7.88
2023-11-23T00:33:30.005Z,4.72
2023-11-23T00:35:58.025Z,12.75
2023-11-23T00:38:26.250Z,7.05
2023-11-23T00:40:54.000Z,7.20
2023-11-23T00:43:22.278Z,7.85
2023-11-23T00:45:50.633Z,9.60
2023-11-23T00:48:20.894Z,6.22
2023-11-23T00:50:49.111Z,10.45
2023-11-23T00:53:17.530Z,6.60
2023-11-23T00:55:45.496Z,7.65
2023-11-23T00:58:13.596Z,9.65
2023-11-23T01:00:43.332Z,6.70
2023-11-23T01:03:11.998Z,6.25
2023-11-23T01:05:39.911Z,8.00
2023-11-23T01:08:08.246Z,6.28
2023-11-23T01:10:36.028Z,6.65
2023-11-23T01:13:04.217Z,9.23
2023-11-23T01:15:33.206Z,7.63
2023-11-23T01:18:01.478Z,7.55
2023-11-23T01:20:29.716Z,5.40
2023-11-23T01:22:58.137Z,7.68
2023-11-23T01:25:26.048Z,7.60
2023-11-23T01:27:54.314Z,5.93
2023-11-23T01:30:22.450Z,8.57
2023-11-23T01:32:51.369Z,6.68
2023-11-23T01:35:24.295Z,7.63
2023-11-23T01:37:52.828Z,6.50
2023-11-23T01:40:21.206Z,5.15
2023-11-23T01:42:49.501Z,6.25
2023-11-23T01:45:18.240Z,7.63
2023-11-23T01:47:48.419Z,6.68
2023-11-23T01:50:17.733Z,6.50
2023-11-23T01:52:47.305Z,8.30
2023-11-23T01:55:15.770Z,9.07
2023-11-23T01:57:48.416Z,6.20
2023-11-23T02:00:19.170Z,5.88
2023-11-23T02:02:48.051Z,8.32
2023-11-23T02:05:19.078Z,8.13
2023-11-23T02:07:47.296Z,7.43
2023-11-23T02:10:16.433Z,5.25
2023-11-23T02:12:45.349Z,7.10
2023-11-23T02:15:13.680Z,6.15
2023-11-23T02:17:45.112Z,5.70
2023-11-23T02:20:13.284Z,6.25
2023-11-23T02:22:41.515Z,4.82
2023-11-23T02:25:09.802Z,5.32
2023-11-23T02:27:39.366Z,5.43
2023-11-23T02:30:08.272Z,5.00
2023-11-23T02:32:37.313Z,4.50
2023-11-23T02:35:05.777Z,7.05
2023-11-23T02:37:34.444Z,6.22
2023-11-23T02:40:02.323Z,6.18
2023-11-23T02:42:31.235Z,6.90
2023-11-23T02:45:01.530Z,5.28
2023-11-23T02:47:29.839Z,6.00
2023-11-23T02:49:58.635Z,6.95
2023-11-23T02:52:27.019Z,4.22
2023-11-23T02:54:54.926Z,6.57
2023-11-23T02:57:23.257Z,7.13
2023-11-23T02:59:51.367Z,6.45
2023-11-23T03:02:20.516Z,7.00
2023-11-23T03:04:48.484Z,8.07
2023-11-23T03:07:19.278Z,6.97
2023-11-23T03:09:47.236Z,6.30
2023-11-23T03:12:15.396Z,5.30
2023-11-23T03:14:43.334Z,6.88
2023-11-23T03:17:11.484Z,4.82
2023-11-23T03:19:39.695Z,4.55
2023-11-23T03:22:09.021Z,5.10
2023-11-23T03:24:37.015Z,4.63
2023-11-23T03:27:05.496Z,6.43
2023-11-23T03:29:33.394Z,5.20
2023-11-23T03:32:01.542Z,5.43
2023-11-23T03:34:29.647Z,3.83
2023-11-23T03:36:57.818Z,6.35
2023-11-23T03:39:25.939Z,6.57
2023-11-23T03:41:54.829Z,7.25
2023-11-23T03:44:22.792Z,5.30
2023-11-23T03:46:51.467Z,5.53
2023-11-23T03:49:19.589Z,6.40
2023-11-23T03:51:47.769Z,4.88
2023-11-23T03:54:16.174Z,8.32
2023-11-23T03:56:47.644Z,5.30
2023-11-23T03:59:17.867Z,6.30
2023-11-23T04:01:47.807Z,6.20
2023-11-23T04:04:15.749Z,7.70
2023-11-23T04:06:45.551Z,6.60
2023-11-23T04:09:13.929Z,6.30
2023-11-23T04:11:42.348Z,4.72
2023-11-23T04:14:10.089Z,4.28
2023-11-23T04:16:38.410Z,5.43
2023-11-23T04:19:06.168Z,6.45
2023-11-23T04:21:34.438Z,5.82
2023-11-23T04:24:02.218Z,4.65
2023-11-23T04:26:32.637Z,6.40
2023-11-23T04:29:00.383Z,6.05
2023-11-23T04:31:28.497Z,7.22
2023-11-23T04:33:56.366Z,4.25
2023-11-23T04:36:24.891Z,4.85
2023-11-23T04:38:52.708Z,6.60
2023-11-23T04:41:20.801Z,5.05
2023-11-23T04:43:48.600Z,4.22
2023-11-23T04:46:17.231Z,3.97
2023-11-23T04:48:45.401Z,7.28
2023-11-23T04:51:13.874Z,8.88
2023-11-23T04:53:41.652Z,6.50
2023-11-23T04:56:10.053Z,6.10
2023-11-23T04:58:38.132Z,5.63
2023-11-23T05:01:07.180Z,9.07
2023-11-23T05:03:36.781Z,7.30
2023-11-23T05:06:05.436Z,9.32
2023-11-23T05:08:33.228Z,5.43
2023-11-23T05:11:01.458Z,7.22
2023-11-23T05:13:29.441Z,5.88
2023-11-23T05:15:57.508Z,10.52
2023-11-23T05:18:25.445Z,7.57
2023-11-23T05:20:56.830Z,8.05
2023-11-23T05:23:25.649Z,6.95
2023-11-23T05:25:54.341Z,7.88
2023-11-23T05:28:23.173Z,6.00
2023-11-23T05:30:51.550Z,8.10
2023-11-23T05:33:21.111Z,6.43
2023-11-23T05:35:50.613Z,6.70
2023-11-23T05:38:18.770Z,11.13
2023-11-23T05:40:47.163Z,14.55
2023-11-23T05:43:15.550Z,12.25
2023-11-23T05:45:44.159Z,13.23
2023-11-23T06:03:14.511Z,10.55
2023-11-23T06:05:42.815Z,12.23
2023-11-23T06:08:10.666Z,11.65
2023-11-23T06:10:39.832Z,10.23
2023-11-23T06:13:07.637Z,11.98
2023-11-23T06:15:36.078Z,13.52
2023-11-23T06:18:13.300Z,10.30
2023-11-23T06:20:42.823Z,10.85
2023-11-23T06:23:11.678Z,9.43
2023-11-23T06:25:40.573Z,10.32
2023-11-23T06:28:15.091Z,7.88
2023-11-23T06:30:46.642Z,11.63
2023-11-23T06:33:15.279Z,13.05
2023-11-23T06:35:43.451Z,10.18
2023-11-23T06:38:11.280Z,13.95
2023-11-23T06:40:39.541Z,10.00
2023-11-23T06:43:07.413Z,8.52
2023-11-23T06:45:35.688Z,8.38
2023-11-23T06:48:03.707Z,10.55
2023-11-23T06:50:31.848Z,11.68
2023-11-23T06:53:00.862Z,14.70
2023-11-23T06:55:29.157Z,10.98
2023-11-23T06:57:57.010Z,9.10
2023-11-23T07:00:25.466Z,12.50
2023-11-23T07:02:57.163Z,8.65
2023-11-23T07:05:26.471Z,7.50
2023-11-23T07:07:55.588Z,8.65
2023-11-23T07:10:24.034Z,10.30
2023-11-23T07:12:52.506Z,9.88
2023-11-23T07:15:20.782Z,8.75
2023-11-23T07:17:49.297Z,9.52
2023-11-23T07:20:19.409Z,10.25
2023-11-23T07:22:47.196Z,12.32
2023-11-23T07:25:17.103Z,10.48
2023-11-23T07:27:45.847Z,10.75
2023-11-23T07:30:14.769Z,10.50
2023-11-23T07:32:42.739Z,8.20
2023-11-23T07:35:11.118Z,10.55
2023-11-23T07:37:38.979Z,10.20
2023-11-23T07:40:15.040Z,12.57
2023-11-23T07:42:45.076Z,10.27
2023-11-23T07:45:14.027Z,14.63
2023-11-23T07:47:43.482Z,14.20
2023-11-23T07:50:12.547Z,14.68
2023-11-23T07:52:40.411Z,18.80
2023-11-23T07:55:11.853Z,15.27
2023-11-23T07:57:40.330Z,15.50
2023-11-23T08:00:09.547Z,16.25
2023-11-23T08:02:37.938Z,14.95
2023-11-23T08:05:06.765Z,12.98
2023-11-23T08:07:35.385Z,16.35
2023-11-23T08:10:07.564Z,17.80
2023-11-23T08:12:35.838Z,14.90
2023-11-23T08:15:06.520Z,13.30
2023-11-23T08:17:34.634Z,12.02
2023-11-23T08:20:02.835Z,10.20
2023-11-23T08:22:30.830Z,13.32
2023-11-23T08:24:59.274Z,16.02
2023-11-23T08:27:27.177Z,15.50
2023-11-23T08:29:56.695Z,14.50
2023-11-23T08:32:24.489Z,18.60
2023-11-23T08:34:53.785Z,14.48
2023-11-23T08:37:24.079Z,16.58
2023-11-23T08:39:52.327Z,13.43
2023-11-23T08:42:20.614Z,11.05
2023-11-23T08:44:49.006Z,11.82
2023-11-23T08:47:17.040Z,23.80
2023-11-23T08:49:45.162Z,9.18
2023-11-23T08:52:13.106Z,9.13
2023-11-23T08:54:41.320Z,11.93
2023-11-23T08:57:09.131Z,10.95
2023-11-23T08:59:39.013Z,9.98
2023-11-23T09:02:17.274Z,7.88
2023-11-23T09:04:50.436Z,11.90
2023-11-23T09:07:21.147Z,10.00
2023-11-23T09:09:49.410Z,15.98
2023-11-23T09:12:18.404Z,8.80
2023-11-23T09:14:49.596Z,10.60
2023-11-23T09:17:20.689Z,12.77
2023-11-23T09:19:49.119Z,9.35
2023-11-23T09:22:17.106Z,9.45
2023-11-23T09:24:45.328Z,8.57
2023-11-23T09:27:14.000Z,8.25
2023-11-23T09:29:42.126Z,3.05
2023-11-23T09:32:13.177Z,3.28
2023-11-23T09:34:41.840Z,5.80
2023-11-23T09:37:09.638Z,4.25
2023-11-23T09:39:38.212Z,5.57
2023-11-23T09:42:08.570Z,5.88
2023-11-23T09:44:37.665Z,3.70
2023-11-23T09:47:07.842Z,5.45
2023-11-23T09:49:38.758Z,3.92
2023-11-23T09:52:08.528Z,8.48
2023-11-23T09:54:37.495Z,4.32
2023-11-23T09:57:06.370Z,6.07
2023-11-23T09:59:34.841Z,4.78
2023-11-23T10:02:06.584Z,4.50
2023-11-23T10:04:35.236Z,4.97
2023-11-23T10:07:05.090Z,3.83
2023-11-23T10:09:37.442Z,4.70
2023-11-23T10:12:05.530Z,4.05
2023-11-23T10:14:33.706Z,3.50
2023-11-23T10:17:01.839Z,4.43
2023-11-23T10:19:30.156Z,3.40
2023-11-23T10:22:01.247Z,4.18
2023-11-23T10:24:30.546Z,3.95
2023-11-23T10:26:58.677Z,3.38
2023-11-23T10:29:33.741Z,3.22
2023-11-23T10:32:01.717Z,8.32
2023-11-23T10:34:30.916Z,7.03
2023-11-23T10:37:00.535Z,5.35
2023-11-23T10:39:32.209Z,3.13
2023-11-23T10:42:01.246Z,4.00
2023-11-23T10:44:31.232Z,2.80
2023-11-23T10:47:05.134Z,1.38
2023-11-23T10:49:37.594Z,1.70
2023-11-23T10:52:09.725Z,4.30
2023-11-23T10:54:38.332Z,1.63
2023-11-23T10:57:09.980Z,1.85
2023-11-23T10:59:42.656Z,1.63
2023-11-23T11:02:13.544Z,3.25
2023-11-23T11:04:42.061Z,1.77
2023-11-23T11:07:12.490Z,1.30
2023-11-23T11:09:40.841Z,1.40
2023-11-23T11:12:15.181Z,4.95
2023-11-23T11:14:52.536Z,4.53
2023-11-23T11:17:35.039Z,3.60
2023-11-23T11:20:10.514Z,3.42
2023-11-23T11:22:38.340Z,3.30
2023-11-23T11:25:08.952Z,3.70
2023-11-23T11:27:36.821Z,7.40
2023-11-23T11:30:13.058Z,2.03
2023-11-23T11:32:42.243Z,2.50
2023-11-23T11:35:10.427Z,2.83
2023-11-23T11:37:43.125Z,1.70
2023-11-23T11:40:13.102Z,2.85
2023-11-23T11:42:42.183Z,3.58
2023-11-23T11:45:13.984Z,2.10
2023-11-23T11:47:42.897Z,3.03
2023-11-23T11:50:14.904Z,1.83
2023-11-23T11:52:42.818Z,2.10
2023-11-23T11:55:11.070Z,1.85
2023-11-23T11:57:42.314Z,6.38
2023-11-23T12:00:11.121Z,3.92
2023-11-23T12:02:41.810Z,2.25
2023-11-23T12:05:10.707Z,4.10
2023-11-23T12:07:38.451Z,3.60
2023-11-23T12:10:08.946Z,5.05
2023-11-23T12:12:49.200Z,2.80
2023-11-23T12:15:21.113Z,2.80
2023-11-23T12:17:51.583Z,2.38
2023-11-23T12:20:20.026Z,2.33
2023-11-23T12:22:47.777Z,2.55
2023-11-23T12:25:19.587Z,3.55
2023-11-23T12:27:47.610Z,1.27
2023-11-23T12:30:18.816Z,2.05
2023-11-23T12:32:46.624Z,0.82
2023-11-23T12:35:15.160Z,3.28
2023-11-23T12:37:43.125Z,2.03
2023-11-23T12:40:13.112Z,2.55
2023-11-23T12:42:41.449Z,5.65
2023-11-23T12:45:10.465Z,1.52
2023-11-23T12:47:41.217Z,2.00
2023-11-23T12:50:12.647Z,1.52
2023-11-23T12:52:41.073Z,1.90
2023-11-23T12:55:10.422Z,1.65
2023-11-23T12:57:41.897Z,1.60
2023-11-23T13:00:23.178Z,2.15
2023-11-23T13:02:51.779Z,3.70
2023-11-23T13:05:20.104Z,2.38
2023-11-23T13:07:47.926Z,7.82
2023-11-23T13:10:17.267Z,3.92
2023-11-23T13:12:46.092Z,5.78
2023-11-23T13:15:15.425Z,3.38
2023-11-23T13:17:44.672Z,2.75
2023-11-23T13:20:13.144Z,3.05
2023-11-23T13:22:42.645Z,3.80
2023-11-23T13:25:13.453Z,4.15
2023-11-23T13:27:44.229Z,2.10
2023-11-23T13:30:13.127Z,2.88
2023-11-23T13:32:43.352Z,4.30
2023-11-23T13:35:12.199Z,3.45
2023-11-23T13:37:40.348Z,4.55
2023-11-23T13:40:10.584Z,6.55
2023-11-23T13:42:39.013Z,6.65
2023-11-23T13:45:09.373Z,4.60
2023-11-23T13:47:37.748Z,4.82
2023-11-23T13:50:10.238Z,7.00
2023-11-23T13:52:38.641Z,7.18
2023-11-23T13:55:07.030Z,6.43
2023-11-23T13:57:34.870Z,5.68
2023-11-23T14:00:12.916Z,6.75
2023-11-23T14:02:41.430Z,7.63
2023-11-23T14:05:11.233Z,4.63
2023-11-23T14:07:39.576Z,8.15
2023-11-23T14:10:10.504Z,6.00
2023-11-23T14:12:38.474Z,6.60
2023-11-23T14:15:07.595Z,5.38
2023-11-23T14:17:35.419Z,4.07
2023-11-23T14:20:07.881Z,3.65
2023-11-23T14:22:36.387Z,3.38
2023-11-23T14:25:04.970Z,3.75
2023-11-23T14:27:32.784Z,6.75
2023-11-23T14:30:01.159Z,3.60
2023-11-23T14:32:29.199Z,4.25
2023-11-23T14:34:57.307Z,5.10
2023-11-23T14:37:25.064Z,6.03
2023-11-23T14:39:53.642Z,3.72
2023-11-23T14:42:21.457Z,4.47
2023-11-23T14:44:49.609Z,3.42
2023-11-23T14:47:20.710Z,4.70
2023-11-23T14:49:50.103Z,4.97
2023-11-23T14:52:21.073Z,3.45
2023-11-23T14:54:49.897Z,7.22
2023-11-23T14:57:17.922Z,5.35
2023-11-23T14:59:46.687Z,5.45
2023-11-23T15:02:15.697Z,6.50
2023-11-23T15:04:43.881Z,6.00
2023-11-23T15:07:11.706Z,6.72
2023-11-23T15:09:42.505Z,5.10
2023-11-23T15:12:15.507Z,11.45
2023-11-23T15:14:46.453Z,8.75
2023-11-23T15:17:14.419Z,6.32
2023-11-23T15:19:42.527Z,8.90
2023-11-23T15:22:11.527Z,9.75
2023-11-23T15:24:39.978Z,9.55
2023-11-23T15:27:08.958Z,8.75
2023-11-23T15:29:37.212Z,7.38
2023-11-23T15:32:07.533Z,14.23
2023-11-23T15:34:35.938Z,11.75
2023-11-23T15:37:04.851Z,12.48
2023-11-23T15:39:34.234Z,12.48
2023-11-23T15:42:05.301Z,10.65
2023-11-23T15:44:33.637Z,14.68
2023-11-23T15:47:03.827Z,12.70
2023-11-23T15:49:32.751Z,10.25
2023-11-23T15:52:01.065Z,7.07
2023-11-23T15:54:29.621Z,7.35
2023-11-23T15:56:57.445Z,6.07
2023-11-23T15:59:25.900Z,12.20
2023-11-23T16:01:54.833Z,6.90
2023-11-23T16:04:23.615Z,8.23
2023-11-23T16:06:51.413Z,8.82
2023-11-23T16:09:20.914Z,9.00
2023-11-23T16:11:48.884Z,4.75
2023-11-23T16:14:17.241Z,6.07
2023-11-23T16:16:45.165Z,5.65
2023-11-23T16:19:13.715Z,5.93
2023-11-23T16:21:41.770Z,6.00
2023-11-23T16:24:12.109Z,2.60
2023-11-23T16:26:40.666Z,3.33
2023-11-23T16:29:12.267Z,2.55
2023-11-23T16:31:46.110Z,2.97
2023-11-23T16:34:17.016Z,3.33
2023-11-23T16:36:47.387Z,4.20
2023-11-23T16:39:18.728Z,3.97
2023-11-23T16:41:49.076Z,3.00
2023-11-23T16:44:17.789Z,2.85
2023-11-23T16:46:47.265Z,3.50
2023-11-23T16:49:15.684Z,4.93
2023-11-23T16:51:44.113Z,3.05
2023-11-23T16:54:12.399Z,12.90
2023-11-23T16:56:40.358Z,9.85
2023-11-23T16:59:11.702Z,4.70
2023-11-23T17:01:41.704Z,3.47
2023-11-23T17:04:10.198Z,3.75
2023-11-23T17:06:40.647Z,3.30
2023-11-23T17:09:11.560Z,3.25
2023-11-23T17:11:39.454Z,1.58
2023-11-23T17:14:11.616Z,1.40
2023-11-23T17:16:40.760Z,7.05
2023-11-23T17:19:08.930Z,6.90
2023-11-23T17:21:37.086Z,5.10
2023-11-23T17:24:07.342Z,2.45
2023-11-23T17:26:35.254Z,1.25
2023-11-23T17:29:04.529Z,2.00
2023-11-23T17:31:34.385Z,1.58
2023-11-23T17:34:03.232Z,1.67
2023-11-23T17:36:31.761Z,1.50
2023-11-23T17:39:02.111Z,2.38
2023-11-23T17:41:31.890Z,3.10
2023-11-23T17:44:07.444Z,2.55
2023-11-23T17:46:36.935Z,2.47
2023-11-23T17:49:09.521Z,2.45
2023-11-23T17:51:40.788Z,4.53
2023-11-23T17:54:09.232Z,10.07
2023-11-23T17:56:38.056Z,6.40
2023-11-23T17:59:25.452Z,6.50
2023-11-23T18:01:59.126Z,4.60
2023-11-23T18:04:28.057Z,4.13
2023-11-23T18:06:56.378Z,3.45
2023-11-23T18:09:24.684Z,2.85
2023-11-23T18:11:52.715Z,3.35
2023-11-23T18:14:20.837Z,2.78
2023-11-23T18:16:48.891Z,4.53
2023-11-23T18:19:17.076Z,3.30
2023-11-23T18:21:44.905Z,3.35
2023-11-23T18:24:13.647Z,3.55
2023-11-23T18:26:41.584Z,3.17
2023-11-23T18:29:09.760Z,1.90
2023-11-23T18:31:39.697Z,1.88
2023-11-23T18:34:10.830Z,2.90
2023-11-23T18:36:39.443Z,4.95
2023-11-23T18:39:10.933Z,4.22
2023-11-23T18:41:39.038Z,6.28
2023-11-23T18:44:07.326Z,4.80
2023-11-23T18:46:35.156Z,3.83
2023-11-23T18:49:04.220Z,4.32
2023-11-23T18:51:32.712Z,4.82
2023-11-23T18:54:02.338Z,3.35
2023-11-23T18:56:30.319Z,1.65
2023-11-23T18:58:58.573Z,1.48
2023-11-23T19:01:26.639Z,1.90
2023-11-23T19:03:55.874Z,1.42
2023-11-23T19:06:25.224Z,2.58
2023-11-23T19:08:53.683Z,2.40
2023-11-23T19:11:21.701Z,2.80
2023-11-23T19:13:49.868Z,2.72
2023-11-23T19:16:18.026Z,2.05
2023-11-23T19:18:49.736Z,2.55
2023-11-23T19:21:19.640Z,1.23
2023-11-23T19:23:48.093Z,1.08
2023-11-23T19:26:17.601Z,1.17
2023-11-23T19:28:46.639Z,0.68
2023-11-23T19:31:16.064Z,2.90
2023-11-23T19:33:44.810Z,1.40
2023-11-23T19:36:13.886Z,0.98
2023-11-23T19:38:42.411Z,1.45
2023-11-23T19:41:10.929Z,2.08
2023-11-23T19:43:39.332Z,1.42
2023-11-23T19:46:08.428Z,0.98
2023-11-23T19:48:37.009Z,2.95
2023-11-23T19:51:07.627Z,1.30
2023-11-23T19:53:42.733Z,1.35
2023-11-23T19:56:10.614Z,1.25
2023-11-23T19:58:38.755Z,1.73
2023-11-23T20:01:06.801Z,1.25
2023-11-23T20:03:35.285Z,2.13
2023-11-23T20:06:04.199Z,1.75
2023-11-23T20:08:33.747Z,1.90
2023-11-23T20:11:01.926Z,2.03
2023-11-23T20:13:30.056Z,2.13
2023-11-23T20:15:58.726Z,3.63
2023-11-23T20:18:26.987Z,1.88
2023-11-23T20:20:55.173Z,1.70
2023-11-23T20:23:23.408Z,1.05
2023-11-23T20:25:51.273Z,0.75
2023-11-23T20:28:19.496Z,1.80
2023-11-23T20:30:48.202Z,1.70
2023-11-23T20:33:18.423Z,1.05
2023-11-23T20:35:48.344Z,1.58
2023-11-23T20:38:16.562Z,1.30
2023-11-23T20:40:46.242Z,1.23
2023-11-23T20:43:15.126Z,2.55
2023-11-23T20:45:43.560Z,1.88
2023-11-23T20:48:11.793Z,1.33
2023-11-23T20:50:40.505Z,2.72
2023-11-23T20:53:08.594Z,5.22
2023-11-23T20:55:36.622Z,3.28
2023-11-23T20:58:05.111Z,1.85
2023-11-23T21:00:33.162Z,2.25
2023-11-23T21:03:02.067Z,1.80
2023-11-23T21:05:31.540Z,0.60
2023-11-23T21:08:00.918Z,4.00
2023-11-23T21:10:29.245Z,2.10
2023-11-23T21:12:57.679Z,2.30
2023-11-23T21:15:25.415Z,2.25
2023-11-23T21:17:53.547Z,2.97
2023-11-23T21:20:21.646Z,4.00
2023-11-23T21:22:49.715Z,2.75
2023-11-23T21:25:17.711Z,1.77
2023-11-23T21:27:46.698Z,2.28
2023-11-23T21:30:14.745Z,2.78
2023-11-23T21:32:42.871Z,1.75
2023-11-23T21:35:11.456Z,1.48
2023-11-23T21:37:39.755Z,2.60
2023-11-23T21:40:10.396Z,2.03
2023-11-23T21:42:38.724Z,1.85
2023-11-23T21:45:07.791Z,1.73
2023-11-23T21:47:38.288Z,1.15
2023-11-23T21:50:08.257Z,1.52
2023-11-23T21:52:37.516Z,0.90
2023-11-23T21:55:05.663Z,0.90
2023-11-23T21:57:33.748Z,1.02
2023-11-23T22:00:02.648Z,0.63
2023-11-23T22:02:32.691Z,0.65
2023-11-23T22:05:03.550Z,0.90
2023-11-23T22:07:31.792Z,0.80
2023-11-23T22:09:59.537Z,0.70
2023-11-23T22:12:27.853Z,0.85
2023-11-23T22:14:55.684Z,0.50
2023-11-23T22:17:24.155Z,1.98
2023-11-23T22:19:53.129Z,2.50
2023-11-23T22:22:21.566Z,0.65
2023-11-23T22:24:50.691Z,0.90
2023-11-23T22:27:20.263Z,0.52
2023-11-23T22:29:48.423Z,0.60
2023-11-23T22:32:19.861Z,0.43
2023-11-23T22:34:48.030Z,0.63
2023-11-23T22:37:16.380Z,0.65
2023-11-23T22:39:44.747Z,1.40
2023-11-23T22:42:13.807Z,1.13
2023-11-23T22:44:42.126Z,0.63
2023-11-23T22:47:10.287Z,0.95
2023-11-23T22:49:40.544Z,0.73
2023-11-23T22:52:08.882Z,1.63
2023-11-23T22:54:36.698Z,0.60
2023-11-23T22:57:05.375Z,1.08
2023-11-23T22:59:33.337Z,0.60
2023-11-23T23:02:03.898Z,0.55
2023-11-23T23:04:32.788Z,2.03
2023-11-23T23:07:06.410Z,1.17
2023-11-23T23:09:34.582Z,2.35
2023-11-23T23:12:03.277Z,0.60
2023-11-23T23:14:32.838Z,1.13
2023-11-23T23:17:01.571Z,2.78
2023-11-23T23:19:29.553Z,0.50
2023-11-23T23:21:57.659Z,4.97
2023-11-23T23:24:25.682Z,1.40
2023-11-23T23:26:53.777Z,0.60
2023-11-23T23:29:21.942Z,0.40
2023-11-23T23:31:50.205Z,1.98
2023-11-23T23:34:18.110Z,0.47
2023-11-23T23:36:46.946Z,5.60
2023-11-23T23:39:14.909Z,2.47
2023-11-23T23:41:43.295Z,1.02
2023-11-23T23:44:11.148Z,0.38
2023-11-23T23:46:40.467Z,0.65
2023-11-23T23:49:08.420Z,0.60
2023-11-23T23:51:36.664Z,0.90
2023-11-23T23:54:05.066Z,0.73
2023-11-23T23:56:33.550Z,0.40
2023-11-23T23:59:01.339Z,0.47
